sensor_id;sensor_type;location;lat;lon;timestamp;temperature;humidity
70986;DHT22;58645;43.068;25.610;2023-04-06T00:01:31;3.80;99.90
70986;DHT22;58645;43.068;25.610;2023-04-06T00:03:57;3.80;99.90
70986;DHT22;58645;43.068;25.610;2023-04-06T00:06:23;3.70;99.90
70986;DHT22;58645;43.068;25.610;2023-04-06T00:08:49;3.60;99.90
70986;DHT22;58645;43.068;25.610;2023-04-06T00:11:15;3.70;99.90
70986;DHT22;58645;43.068;25.610;2023-04-06T00:13:42;3.60;99.90
70986;DHT22;58645;43.068;25.610;2023-04-06T00:16:08;3.70;99.90
70986;DHT22;58645;43.068;25.610;2023-04-06T00:18:33;3.60;99.90
70986;DHT22;58645;43.068;25.610;2023-04-06T00:20:59;3.60;99.90
70986;DHT22;58645;43.068;25.610;2023-04-06T00:23:25;3.60;99.90
70986;DHT22;58645;43.068;25.610;2023-04-06T00:25:51;3.60;99.90
70986;DHT22;58645;43.068;25.610;2023-04-06T00:28:17;3.60;99.90
70986;DHT22;58645;43.068;25.610;2023-04-06T00:30:43;3.60;99.90
70986;DHT22;58645;43.068;25.610;2023-04-06T00:33:08;3.50;99.90
70986;DHT22;58645;43.068;25.610;2023-04-06T00:35:34;3.50;99.90
70986;DHT22;58645;43.068;25.610;2023-04-06T00:38:00;3.50;99.90
70986;DHT22;58645;43.068;25.610;2023-04-06T00:40:26;3.40;99.90
70986;DHT22;58645;43.068;25.610;2023-04-06T00:42:54;3.40;99.90
70986;DHT22;58645;43.068;25.610;2023-04-06T00:45:20;3.30;99.90
70986;DHT22;58645;43.068;25.610;2023-04-06T00:47:46;3.30;99.90
70986;DHT22;58645;43.068;25.610;2023-04-06T00:50:12;3.30;99.90
70986;DHT22;58645;43.068;25.610;2023-04-06T00:52:37;3.20;99.90
70986;DHT22;58645;43.068;25.610;2023-04-06T00:55:04;3.20;99.90
70986;DHT22;58645;43.068;25.610;2023-04-06T00:57:31;3.20;99.90
70986;DHT22;58645;43.068;25.610;2023-04-06T00:59:56;3.10;99.90
70986;DHT22;58645;43.068;25.610;2023-04-06T01:02:23;3.10;99.90
70986;DHT22;58645;43.068;25.610;2023-04-06T01:04:50;3.10;99.90
70986;DHT22;58645;43.068;25.610;2023-04-06T01:07:17;3.10;99.90
70986;DHT22;58645;43.068;25.610;2023-04-06T01:09:42;3.10;99.90
70986;DHT22;58645;43.068;25.610;2023-04-06T01:12:08;3.10;99.90
70986;DHT22;58645;43.068;25.610;2023-04-06T01:14:34;3.00;99.90
70986;DHT22;58645;43.068;25.610;2023-04-06T01:17:00;3.00;99.90
70986;DHT22;58645;43.068;25.610;2023-04-06T01:19:26;2.90;99.90
70986;DHT22;58645;43.068;25.610;2023-04-06T01:21:52;2.90;99.90
70986;DHT22;58645;43.068;25.610;2023-04-06T01:24:19;2.90;99.90
70986;DHT22;58645;43.068;25.610;2023-04-06T01:26:45;2.80;99.90
70986;DHT22;58645;43.068;25.610;2023-04-06T01:29:11;2.80;99.90
70986;DHT22;58645;43.068;25.610;2023-04-06T01:31:37;2.90;99.90
70986;DHT22;58645;43.068;25.610;2023-04-06T01:34:03;2.80;99.90
70986;DHT22;58645;43.068;25.610;2023-04-06T01:36:29;2.80;99.90
70986;DHT22;58645;43.068;25.610;2023-04-06T01:38:55;2.80;99.90
70986;DHT22;58645;43.068;25.610;2023-04-06T01:41:21;2.80;99.90
70986;DHT22;58645;43.068;25.610;2023-04-06T01:43:47;2.80;99.90
70986;DHT22;58645;43.068;25.610;2023-04-06T01:46:14;2.80;99.90
70986;DHT22;58645;43.068;25.610;2023-04-06T01:48:39;2.80;99.90
70986;DHT22;58645;43.068;25.610;2023-04-06T01:51:05;2.80;99.90
70986;DHT22;58645;43.068;25.610;2023-04-06T01:53:31;2.90;99.90
70986;DHT22;58645;43.068;25.610;2023-04-06T01:55:57;2.90;99.90
70986;DHT22;58645;43.068;25.610;2023-04-06T01:58:22;3.00;99.90
70986;DHT22;58645;43.068;25.610;2023-04-06T02:00:48;3.00;99.90
70986;DHT22;58645;43.068;25.610;2023-04-06T02:03:14;3.00;99.90
70986;DHT22;58645;43.068;25.610;2023-04-06T02:05:40;3.00;99.90
70986;DHT22;58645;43.068;25.610;2023-04-06T02:08:06;3.00;99.90
70986;DHT22;58645;43.068;25.610;2023-04-06T02:10:33;3.10;99.90
70986;DHT22;58645;43.068;25.610;2023-04-06T02:12:59;3.10;99.90
70986;DHT22;58645;43.068;25.610;2023-04-06T02:15:26;3.20;99.90
70986;DHT22;58645;43.068;25.610;2023-04-06T02:17:52;3.20;99.90
70986;DHT22;58645;43.068;25.610;2023-04-06T02:20:18;3.20;99.90
70986;DHT22;58645;43.068;25.610;2023-04-06T02:22:44;3.10;99.90
70986;DHT22;58645;43.068;25.610;2023-04-06T02:25:10;3.20;99.90
70986;DHT22;58645;43.068;25.610;2023-04-06T02:27:36;3.20;99.90
70986;DHT22;58645;43.068;25.610;2023-04-06T02:30:03;3.20;99.90
70986;DHT22;58645;43.068;25.610;2023-04-06T02:32:29;3.20;99.90
70986;DHT22;58645;43.068;25.610;2023-04-06T02:34:54;3.20;99.90
70986;DHT22;58645;43.068;25.610;2023-04-06T02:37:20;3.10;99.90
70986;DHT22;58645;43.068;25.610;2023-04-06T02:39:47;3.20;99.90
70986;DHT22;58645;43.068;25.610;2023-04-06T02:42:13;3.20;99.90
70986;DHT22;58645;43.068;25.610;2023-04-06T02:44:41;3.20;99.90
70986;DHT22;58645;43.068;25.610;2023-04-06T02:47:07;3.10;99.90
70986;DHT22;58645;43.068;25.610;2023-04-06T02:49:32;3.00;99.90
70986;DHT22;58645;43.068;25.610;2023-04-06T02:51:59;3.00;99.90
70986;DHT22;58645;43.068;25.610;2023-04-06T02:54:25;3.10;99.90
70986;DHT22;58645;43.068;25.610;2023-04-06T02:56:51;3.00;99.90
70986;DHT22;58645;43.068;25.610;2023-04-06T02:59:16;3.00;99.90
70986;DHT22;58645;43.068;25.610;2023-04-06T03:01:42;3.00;99.90
70986;DHT22;58645;43.068;25.610;2023-04-06T03:04:08;2.90;99.90
70986;DHT22;58645;43.068;25.610;2023-04-06T03:06:34;2.90;99.90
70986;DHT22;58645;43.068;25.610;2023-04-06T03:09:01;2.80;99.90
70986;DHT22;58645;43.068;25.610;2023-04-06T03:11:27;2.70;99.90
70986;DHT22;58645;43.068;25.610;2023-04-06T03:13:52;2.80;99.90
70986;DHT22;58645;43.068;25.610;2023-04-06T03:16:18;2.80;99.90
70986;DHT22;58645;43.068;25.610;2023-04-06T03:18:44;2.80;99.90
70986;DHT22;58645;43.068;25.610;2023-04-06T03:21:13;2.70;99.90
70986;DHT22;58645;43.068;25.610;2023-04-06T03:23:42;2.80;99.90
70986;DHT22;58645;43.068;25.610;2023-04-06T03:26:08;2.80;99.90
70986;DHT22;58645;43.068;25.610;2023-04-06T03:28:34;2.80;99.90
70986;DHT22;58645;43.068;25.610;2023-04-06T03:31:00;2.80;99.90
70986;DHT22;58645;43.068;25.610;2023-04-06T03:33:25;2.70;99.90
70986;DHT22;58645;43.068;25.610;2023-04-06T03:35:53;2.70;99.90
70986;DHT22;58645;43.068;25.610;2023-04-06T03:38:19;2.70;99.90
70986;DHT22;58645;43.068;25.610;2023-04-06T03:40:44;2.70;99.90
70986;DHT22;58645;43.068;25.610;2023-04-06T03:43:10;2.70;99.90
70986;DHT22;58645;43.068;25.610;2023-04-06T03:45:36;2.60;99.90
70986;DHT22;58645;43.068;25.610;2023-04-06T03:48:02;2.60;99.90
70986;DHT22;58645;43.068;25.610;2023-04-06T03:50:28;2.60;99.90
70986;DHT22;58645;43.068;25.610;2023-04-06T03:52:54;2.60;99.90
70986;DHT22;58645;43.068;25.610;2023-04-06T03:55:19;2.70;99.90
70986;DHT22;58645;43.068;25.610;2023-04-06T03:57:45;2.60;99.90
70986;DHT22;58645;43.068;25.610;2023-04-06T04:00:11;2.60;99.90
70986;DHT22;58645;43.068;25.610;2023-04-06T04:02:37;2.70;99.90
70986;DHT22;58645;43.068;25.610;2023-04-06T04:05:03;2.60;99.90
70986;DHT22;58645;43.068;25.610;2023-04-06T04:07:30;2.70;99.90
70986;DHT22;58645;43.068;25.610;2023-04-06T04:09:56;2.70;99.90
70986;DHT22;58645;43.068;25.610;2023-04-06T04:12:21;2.70;99.90
70986;DHT22;58645;43.068;25.610;2023-04-06T04:14:47;2.70;99.90
70986;DHT22;58645;43.068;25.610;2023-04-06T04:17:13;2.70;99.90
70986;DHT22;58645;43.068;25.610;2023-04-06T04:19:38;2.70;99.90
70986;DHT22;58645;43.068;25.610;2023-04-06T04:22:04;2.70;99.90
70986;DHT22;58645;43.068;25.610;2023-04-06T04:24:31;2.80;99.90
70986;DHT22;58645;43.068;25.610;2023-04-06T04:26:57;2.80;99.90
70986;DHT22;58645;43.068;25.610;2023-04-06T04:29:23;2.90;99.90
70986;DHT22;58645;43.068;25.610;2023-04-06T04:31:51;2.90;99.90
70986;DHT22;58645;43.068;25.610;2023-04-06T04:34:18;2.90;99.90
70986;DHT22;58645;43.068;25.610;2023-04-06T04:36:46;3.00;99.90
70986;DHT22;58645;43.068;25.610;2023-04-06T04:39:12;3.10;99.90
70986;DHT22;58645;43.068;25.610;2023-04-06T04:41:37;3.10;99.90
70986;DHT22;58645;43.068;25.610;2023-04-06T04:44:03;3.10;99.90
70986;DHT22;58645;43.068;25.610;2023-04-06T04:46:29;3.20;99.90
70986;DHT22;58645;43.068;25.610;2023-04-06T04:48:55;3.30;99.90
70986;DHT22;58645;43.068;25.610;2023-04-06T04:51:21;3.40;99.90
70986;DHT22;58645;43.068;25.610;2023-04-06T04:53:47;3.50;99.90
70986;DHT22;58645;43.068;25.610;2023-04-06T04:56:13;3.70;99.90
70986;DHT22;58645;43.068;25.610;2023-04-06T04:58:38;3.80;99.90
70986;DHT22;58645;43.068;25.610;2023-04-06T05:01:04;3.80;99.90
70986;DHT22;58645;43.068;25.610;2023-04-06T05:03:32;3.90;99.90
70986;DHT22;58645;43.068;25.610;2023-04-06T05:05:58;3.90;99.90
70986;DHT22;58645;43.068;25.610;2023-04-06T05:08:24;4.00;99.90
70986;DHT22;58645;43.068;25.610;2023-04-06T05:10:50;4.10;99.90
70986;DHT22;58645;43.068;25.610;2023-04-06T05:13:16;4.20;99.90
70986;DHT22;58645;43.068;25.610;2023-04-06T05:15:42;4.20;99.90
70986;DHT22;58645;43.068;25.610;2023-04-06T05:18:08;4.20;99.90
70986;DHT22;58645;43.068;25.610;2023-04-06T05:20:35;4.20;99.90
70986;DHT22;58645;43.068;25.610;2023-04-06T05:23:01;4.30;99.90
70986;DHT22;58645;43.068;25.610;2023-04-06T05:25:28;4.40;99.90
70986;DHT22;58645;43.068;25.610;2023-04-06T05:27:54;4.40;99.90
70986;DHT22;58645;43.068;25.610;2023-04-06T05:30:20;4.50;99.90
70986;DHT22;58645;43.068;25.610;2023-04-06T05:32:46;4.50;99.90
70986;DHT22;58645;43.068;25.610;2023-04-06T05:35:12;4.70;99.90
70986;DHT22;58645;43.068;25.610;2023-04-06T05:37:39;4.80;99.90
70986;DHT22;58645;43.068;25.610;2023-04-06T05:40:05;4.90;99.90
70986;DHT22;58645;43.068;25.610;2023-04-06T05:42:41;4.90;99.90
70986;DHT22;58645;43.068;25.610;2023-04-06T05:45:08;5.00;99.90
70986;DHT22;58645;43.068;25.610;2023-04-06T05:47:36;5.00;99.90
70986;DHT22;58645;43.068;25.610;2023-04-06T05:50:03;5.10;99.90
70986;DHT22;58645;43.068;25.610;2023-04-06T05:52:29;5.20;99.90
70986;DHT22;58645;43.068;25.610;2023-04-06T05:54:54;5.20;99.90
70986;DHT22;58645;43.068;25.610;2023-04-06T05:57:20;5.30;99.90
70986;DHT22;58645;43.068;25.610;2023-04-06T05:59:46;5.30;99.90
70986;DHT22;58645;43.068;25.610;2023-04-06T06:02:12;5.30;99.90
70986;DHT22;58645;43.068;25.610;2023-04-06T06:04:38;5.30;99.90
70986;DHT22;58645;43.068;25.610;2023-04-06T06:07:04;5.20;99.90
70986;DHT22;58645;43.068;25.610;2023-04-06T06:09:30;5.30;99.90
70986;DHT22;58645;43.068;25.610;2023-04-06T06:11:56;5.30;99.90
70986;DHT22;58645;43.068;25.610;2023-04-06T06:14:22;5.50;99.90
70986;DHT22;58645;43.068;25.610;2023-04-06T06:16:48;5.40;99.90
70986;DHT22;58645;43.068;25.610;2023-04-06T06:19:23;5.40;99.90
70986;DHT22;58645;43.068;25.610;2023-04-06T06:21:49;5.50;99.90
70986;DHT22;58645;43.068;25.610;2023-04-06T06:24:18;5.50;99.90
70986;DHT22;58645;43.068;25.610;2023-04-06T06:26:46;5.50;99.90
70986;DHT22;58645;43.068;25.610;2023-04-06T06:29:14;5.50;99.90
70986;DHT22;58645;43.068;25.610;2023-04-06T06:31:40;5.50;99.90
70986;DHT22;58645;43.068;25.610;2023-04-06T06:34:06;5.60;99.90
70986;DHT22;58645;43.068;25.610;2023-04-06T06:36:32;5.50;99.90
70986;DHT22;58645;43.068;25.610;2023-04-06T06:38:58;5.60;99.90
70986;DHT22;58645;43.068;25.610;2023-04-06T06:41:25;5.60;99.90
70986;DHT22;58645;43.068;25.610;2023-04-06T06:43:51;5.50;99.90
70986;DHT22;58645;43.068;25.610;2023-04-06T06:46:17;5.40;99.90
70986;DHT22;58645;43.068;25.610;2023-04-06T06:48:43;5.50;99.90
70986;DHT22;58645;43.068;25.610;2023-04-06T06:51:08;5.50;99.90
70986;DHT22;58645;43.068;25.610;2023-04-06T06:53:37;5.70;99.90
70986;DHT22;58645;43.068;25.610;2023-04-06T06:56:02;5.70;99.90
70986;DHT22;58645;43.068;25.610;2023-04-06T06:58:28;5.70;99.90
70986;DHT22;58645;43.068;25.610;2023-04-06T07:01:00;5.80;99.90
70986;DHT22;58645;43.068;25.610;2023-04-06T07:03:26;5.90;99.90
70986;DHT22;58645;43.068;25.610;2023-04-06T07:05:52;6.00;99.90
70986;DHT22;58645;43.068;25.610;2023-04-06T07:08:23;6.00;99.90
70986;DHT22;58645;43.068;25.610;2023-04-06T07:10:51;6.10;99.90
70986;DHT22;58645;43.068;25.610;2023-04-06T07:13:21;6.10;99.90
70986;DHT22;58645;43.068;25.610;2023-04-06T07:15:51;6.10;99.90
70986;DHT22;58645;43.068;25.610;2023-04-06T07:18:18;6.20;99.90
70986;DHT22;58645;43.068;25.610;2023-04-06T07:20:44;6.20;99.90
70986;DHT22;58645;43.068;25.610;2023-04-06T07:23:09;6.20;99.90
70986;DHT22;58645;43.068;25.610;2023-04-06T07:25:35;6.30;99.90
70986;DHT22;58645;43.068;25.610;2023-04-06T07:28:05;6.20;99.90
70986;DHT22;58645;43.068;25.610;2023-04-06T07:30:31;6.20;99.90
70986;DHT22;58645;43.068;25.610;2023-04-06T07:33:06;6.30;99.90
70986;DHT22;58645;43.068;25.610;2023-04-06T07:35:52;6.30;99.90
70986;DHT22;58645;43.068;25.610;2023-04-06T07:38:18;6.40;99.50
70986;DHT22;58645;43.068;25.610;2023-04-06T07:40:44;6.50;99.90
70986;DHT22;58645;43.068;25.610;2023-04-06T07:43:10;6.60;98.60
70986;DHT22;58645;43.068;25.610;2023-04-06T07:45:38;6.60;97.90
70986;DHT22;58645;43.068;25.610;2023-04-06T07:48:04;6.60;96.20
70986;DHT22;58645;43.068;25.610;2023-04-06T07:50:29;6.70;97.10
70986;DHT22;58645;43.068;25.610;2023-04-06T07:52:55;6.80;96.40
70986;DHT22;58645;43.068;25.610;2023-04-06T07:55:21;6.90;95.70
70986;DHT22;58645;43.068;25.610;2023-04-06T07:57:47;7.00;94.10
70986;DHT22;58645;43.068;25.610;2023-04-06T08:00:13;7.00;95.10
70986;DHT22;58645;43.068;25.610;2023-04-06T08:02:39;7.20;94.30
70986;DHT22;58645;43.068;25.610;2023-04-06T08:05:05;7.30;93.20
70986;DHT22;58645;43.068;25.610;2023-04-06T08:07:32;7.40;92.20
70986;DHT22;58645;43.068;25.610;2023-04-06T08:09:58;7.60;92.30
70986;DHT22;58645;43.068;25.610;2023-04-06T08:12:24;7.80;91.00
70986;DHT22;58645;43.068;25.610;2023-04-06T08:14:49;7.90;89.00
70986;DHT22;58645;43.068;25.610;2023-04-06T08:17:15;7.90;88.10
70986;DHT22;58645;43.068;25.610;2023-04-06T08:19:43;7.90;88.60
70986;DHT22;58645;43.068;25.610;2023-04-06T08:22:10;8.00;88.50
70986;DHT22;58645;43.068;25.610;2023-04-06T08:24:35;8.00;86.70
70986;DHT22;58645;43.068;25.610;2023-04-06T08:27:01;7.90;85.70
70986;DHT22;58645;43.068;25.610;2023-04-06T08:29:27;7.90;85.50
70986;DHT22;58645;43.068;25.610;2023-04-06T08:31:53;7.80;85.10
70986;DHT22;58645;43.068;25.610;2023-04-06T08:34:18;7.80;84.60
70986;DHT22;58645;43.068;25.610;2023-04-06T08:36:44;7.70;85.10
70986;DHT22;58645;43.068;25.610;2023-04-06T08:39:11;7.90;85.00
70986;DHT22;58645;43.068;25.610;2023-04-06T08:41:37;7.90;84.80
70986;DHT22;58645;43.068;25.610;2023-04-06T08:44:03;7.90;84.70
70986;DHT22;58645;43.068;25.610;2023-04-06T08:46:31;8.00;83.40
70986;DHT22;58645;43.068;25.610;2023-04-06T08:49:00;8.00;83.10
70986;DHT22;58645;43.068;25.610;2023-04-06T08:51:28;8.00;83.50
70986;DHT22;58645;43.068;25.610;2023-04-06T08:53:57;8.10;83.40
70986;DHT22;58645;43.068;25.610;2023-04-06T08:56:23;8.10;82.00
70986;DHT22;58645;43.068;25.610;2023-04-06T08:58:50;8.10;82.80
70986;DHT22;58645;43.068;25.610;2023-04-06T09:01:21;8.20;82.10
70986;DHT22;58645;43.068;25.610;2023-04-06T09:03:48;8.20;82.70
70986;DHT22;58645;43.068;25.610;2023-04-06T09:06:15;8.30;82.30
70986;DHT22;58645;43.068;25.610;2023-04-06T09:08:41;8.50;83.00
70986;DHT22;58645;43.068;25.610;2023-04-06T09:11:08;8.50;81.40
70986;DHT22;58645;43.068;25.610;2023-04-06T09:13:53;8.40;80.00
70986;DHT22;58645;43.068;25.610;2023-04-06T09:16:20;8.40;79.70
70986;DHT22;58645;43.068;25.610;2023-04-06T09:18:46;8.40;79.30
70986;DHT22;58645;43.068;25.610;2023-04-06T09:21:21;8.40;79.70
70986;DHT22;58645;43.068;25.610;2023-04-06T09:23:57;8.60;78.50
70986;DHT22;58645;43.068;25.610;2023-04-06T09:26:25;8.60;78.20
70986;DHT22;58645;43.068;25.610;2023-04-06T09:28:56;8.80;78.10
70986;DHT22;58645;43.068;25.610;2023-04-06T09:31:23;8.90;76.50
70986;DHT22;58645;43.068;25.610;2023-04-06T09:33:50;9.20;76.50
70986;DHT22;58645;43.068;25.610;2023-04-06T09:36:18;9.40;76.20
70986;DHT22;58645;43.068;25.610;2023-04-06T09:38:54;9.60;74.80
70986;DHT22;58645;43.068;25.610;2023-04-06T09:41:31;9.90;74.40
70986;DHT22;58645;43.068;25.610;2023-04-06T09:44:11;10.40;73.30
70986;DHT22;58645;43.068;25.610;2023-04-06T09:46:39;10.70;68.60
70986;DHT22;58645;43.068;25.610;2023-04-06T09:49:07;10.90;69.50
70986;DHT22;58645;43.068;25.610;2023-04-06T09:51:41;11.00;68.00
70986;DHT22;58645;43.068;25.610;2023-04-06T09:54:11;11.10;67.90
70986;DHT22;58645;43.068;25.610;2023-04-06T09:56:51;11.30;66.90
70986;DHT22;58645;43.068;25.610;2023-04-06T09:59:44;12.00;65.00
70986;DHT22;58645;43.068;25.610;2023-04-06T10:05:32;12.60;60.30
70986;DHT22;58645;43.068;25.610;2023-04-06T10:08:04;12.50;62.10
70986;DHT22;58645;43.068;25.610;2023-04-06T10:10:31;12.80;59.20
70986;DHT22;58645;43.068;25.610;2023-04-06T10:12:58;12.60;58.00
70986;DHT22;58645;43.068;25.610;2023-04-06T10:15:24;12.50;59.80
70986;DHT22;58645;43.068;25.610;2023-04-06T10:17:51;12.30;60.40
70986;DHT22;58645;43.068;25.610;2023-04-06T10:23:08;12.10;61.00
70986;DHT22;58645;43.068;25.610;2023-04-06T10:25:35;11.80;61.40
70986;DHT22;58645;43.068;25.610;2023-04-06T10:28:06;11.70;61.00
70986;DHT22;58645;43.068;25.610;2023-04-06T10:30:33;11.40;61.80
70986;DHT22;58645;43.068;25.610;2023-04-06T10:32:59;11.50;62.40
70986;DHT22;58645;43.068;25.610;2023-04-06T10:35:36;11.70;62.20
70986;DHT22;58645;43.068;25.610;2023-04-06T10:38:04;11.40;61.60
70986;DHT22;58645;43.068;25.610;2023-04-06T10:40:30;11.60;61.90
70986;DHT22;58645;43.068;25.610;2023-04-06T10:43:17;11.60;62.10
70986;DHT22;58645;43.068;25.610;2023-04-06T10:45:44;12.00;61.50
70986;DHT22;58645;43.068;25.610;2023-04-06T10:48:16;12.20;62.60
70986;DHT22;58645;43.068;25.610;2023-04-06T10:50:48;12.20;59.30
70986;DHT22;58645;43.068;25.610;2023-04-06T10:53:21;12.30;59.50
70986;DHT22;58645;43.068;25.610;2023-04-06T10:55:49;12.30;59.30
70986;DHT22;58645;43.068;25.610;2023-04-06T10:58:15;12.50;60.10
70986;DHT22;58645;43.068;25.610;2023-04-06T11:00:47;12.70;58.00
70986;DHT22;58645;43.068;25.610;2023-04-06T11:03:14;12.90;59.70
70986;DHT22;58645;43.068;25.610;2023-04-06T11:05:50;13.10;58.40
70986;DHT22;58645;43.068;25.610;2023-04-06T11:08:30;13.10;56.90
70986;DHT22;58645;43.068;25.610;2023-04-06T11:11:12;12.70;57.50
70986;DHT22;58645;43.068;25.610;2023-04-06T11:13:51;12.70;57.80
70986;DHT22;58645;43.068;25.610;2023-04-06T11:16:19;13.00;58.40
70986;DHT22;58645;43.068;25.610;2023-04-06T11:18:56;12.90;56.80
70986;DHT22;58645;43.068;25.610;2023-04-06T11:29:18;13.20;58.30
70986;DHT22;58645;43.068;25.610;2023-04-06T11:31:46;13.50;57.60
70986;DHT22;58645;43.068;25.610;2023-04-06T11:34:20;13.60;57.60
70986;DHT22;58645;43.068;25.610;2023-04-06T11:36:48;13.40;56.60
70986;DHT22;58645;43.068;25.610;2023-04-06T11:39:23;13.60;55.80
70986;DHT22;58645;43.068;25.610;2023-04-06T11:41:54;13.60;55.70
70986;DHT22;58645;43.068;25.610;2023-04-06T11:44:43;13.90;56.60
70986;DHT22;58645;43.068;25.610;2023-04-06T11:47:12;14.10;54.20
70986;DHT22;58645;43.068;25.610;2023-04-06T11:49:39;14.20;55.00
70986;DHT22;58645;43.068;25.610;2023-04-06T11:52:20;14.30;55.00
70986;DHT22;58645;43.068;25.610;2023-04-06T11:54:48;13.90;56.20
70986;DHT22;58645;43.068;25.610;2023-04-06T11:57:14;13.90;55.60
70986;DHT22;58645;43.068;25.610;2023-04-06T11:59:51;14.00;55.40
70986;DHT22;58645;43.068;25.610;2023-04-06T12:02:18;14.00;54.10
70986;DHT22;58645;43.068;25.610;2023-04-06T12:04:44;14.00;54.60
70986;DHT22;58645;43.068;25.610;2023-04-06T12:07:10;14.00;55.20
70986;DHT22;58645;43.068;25.610;2023-04-06T12:09:36;14.10;54.10
70986;DHT22;58645;43.068;25.610;2023-04-06T12:12:03;13.70;54.60
70986;DHT22;58645;43.068;25.610;2023-04-06T12:14:29;13.60;55.70
70986;DHT22;58645;43.068;25.610;2023-04-06T12:16:57;13.70;55.50
70986;DHT22;58645;43.068;25.610;2023-04-06T12:19:23;13.70;55.70
70986;DHT22;58645;43.068;25.610;2023-04-06T12:21:54;13.60;54.70
70986;DHT22;58645;43.068;25.610;2023-04-06T12:24:20;13.50;54.80
70986;DHT22;58645;43.068;25.610;2023-04-06T12:26:46;13.50;54.30
70986;DHT22;58645;43.068;25.610;2023-04-06T12:29:12;13.50;54.20
70986;DHT22;58645;43.068;25.610;2023-04-06T12:31:38;13.50;55.80
70986;DHT22;58645;43.068;25.610;2023-04-06T12:34:06;13.90;58.30
70986;DHT22;58645;43.068;25.610;2023-04-06T12:36:32;14.10;54.60
70986;DHT22;58645;43.068;25.610;2023-04-06T12:38:58;14.40;55.80
70986;DHT22;58645;43.068;25.610;2023-04-06T12:41:25;14.60;54.40
70986;DHT22;58645;43.068;25.610;2023-04-06T12:43:51;14.50;54.70
70986;DHT22;58645;43.068;25.610;2023-04-06T12:46:17;14.30;54.70
70986;DHT22;58645;43.068;25.610;2023-04-06T12:48:43;14.00;55.30
70986;DHT22;58645;43.068;25.610;2023-04-06T12:51:09;13.90;54.10
70986;DHT22;58645;43.068;25.610;2023-04-06T12:53:35;13.60;54.60
70986;DHT22;58645;43.068;25.610;2023-04-06T12:56:01;13.50;55.80
70986;DHT22;58645;43.068;25.610;2023-04-06T12:58:27;13.50;55.10
70986;DHT22;58645;43.068;25.610;2023-04-06T13:00:54;13.60;56.60
70986;DHT22;58645;43.068;25.610;2023-04-06T13:03:21;13.60;56.00
70986;DHT22;58645;43.068;25.610;2023-04-06T13:05:49;13.60;54.80
70986;DHT22;58645;43.068;25.610;2023-04-06T13:08:15;13.50;54.10
70986;DHT22;58645;43.068;25.610;2023-04-06T13:10:49;13.40;56.50
70986;DHT22;58645;43.068;25.610;2023-04-06T13:13:17;13.40;55.80
70986;DHT22;58645;43.068;25.610;2023-04-06T13:15:43;13.70;56.80
70986;DHT22;58645;43.068;25.610;2023-04-06T13:18:10;13.80;55.50
70986;DHT22;58645;43.068;25.610;2023-04-06T13:20:36;13.70;54.40
70986;DHT22;58645;43.068;25.610;2023-04-06T13:23:02;13.60;55.30
70986;DHT22;58645;43.068;25.610;2023-04-06T13:25:29;13.50;55.40
70986;DHT22;58645;43.068;25.610;2023-04-06T13:27:55;13.30;55.10
70986;DHT22;58645;43.068;25.610;2023-04-06T13:30:21;13.40;55.10
70986;DHT22;58645;43.068;25.610;2023-04-06T13:32:46;13.30;54.30
70986;DHT22;58645;43.068;25.610;2023-04-06T13:35:12;13.30;55.50
70986;DHT22;58645;43.068;25.610;2023-04-06T13:37:38;13.50;55.80
70986;DHT22;58645;43.068;25.610;2023-04-06T13:40:05;13.40;54.60
70986;DHT22;58645;43.068;25.610;2023-04-06T13:42:31;13.40;54.00
70986;DHT22;58645;43.068;25.610;2023-04-06T13:44:57;13.50;54.50
70986;DHT22;58645;43.068;25.610;2023-04-06T13:47:23;13.30;53.80
70986;DHT22;58645;43.068;25.610;2023-04-06T13:49:52;13.30;54.60
70986;DHT22;58645;43.068;25.610;2023-04-06T13:52:21;13.10;54.50
70986;DHT22;58645;43.068;25.610;2023-04-06T13:54:48;12.90;53.60
70986;DHT22;58645;43.068;25.610;2023-04-06T13:57:14;12.90;54.00
70986;DHT22;58645;43.068;25.610;2023-04-06T13:59:40;12.90;55.40
70986;DHT22;58645;43.068;25.610;2023-04-06T14:02:08;12.90;54.10
70986;DHT22;58645;43.068;25.610;2023-04-06T14:04:34;12.90;54.40
70986;DHT22;58645;43.068;25.610;2023-04-06T14:07:02;12.90;54.20
70986;DHT22;58645;43.068;25.610;2023-04-06T14:09:29;12.80;53.70
70986;DHT22;58645;43.068;25.610;2023-04-06T14:11:55;12.50;54.00
70986;DHT22;58645;43.068;25.610;2023-04-06T14:14:22;12.50;54.20
70986;DHT22;58645;43.068;25.610;2023-04-06T14:16:48;12.40;53.10
70986;DHT22;58645;43.068;25.610;2023-04-06T14:19:15;12.40;53.60
70986;DHT22;58645;43.068;25.610;2023-04-06T14:21:46;12.40;53.70
70986;DHT22;58645;43.068;25.610;2023-04-06T14:24:13;12.40;55.10
70986;DHT22;58645;43.068;25.610;2023-04-06T14:26:40;12.40;54.10
70986;DHT22;58645;43.068;25.610;2023-04-06T14:29:07;12.40;53.80
70986;DHT22;58645;43.068;25.610;2023-04-06T14:31:34;12.50;53.90
70986;DHT22;58645;43.068;25.610;2023-04-06T14:34:04;12.40;54.00
70986;DHT22;58645;43.068;25.610;2023-04-06T14:36:33;12.50;53.30
70986;DHT22;58645;43.068;25.610;2023-04-06T14:39:04;12.50;54.10
70986;DHT22;58645;43.068;25.610;2023-04-06T14:41:30;12.30;53.50
70986;DHT22;58645;43.068;25.610;2023-04-06T14:43:56;12.20;53.10
70986;DHT22;58645;43.068;25.610;2023-04-06T14:46:22;12.10;53.90
70986;DHT22;58645;43.068;25.610;2023-04-06T14:48:48;12.00;54.30
70986;DHT22;58645;43.068;25.610;2023-04-06T14:51:14;12.00;53.90
70986;DHT22;58645;43.068;25.610;2023-04-06T14:53:40;11.70;53.80
70986;DHT22;58645;43.068;25.610;2023-04-06T14:56:06;11.60;54.30
70986;DHT22;58645;43.068;25.610;2023-04-06T14:58:32;11.50;54.70
70986;DHT22;58645;43.068;25.610;2023-04-06T15:00:59;11.40;55.80
70986;DHT22;58645;43.068;25.610;2023-04-06T15:03:26;11.40;54.90
70986;DHT22;58645;43.068;25.610;2023-04-06T15:05:52;11.30;55.70
70986;DHT22;58645;43.068;25.610;2023-04-06T15:08:17;11.30;55.50
70986;DHT22;58645;43.068;25.610;2023-04-06T15:10:46;11.40;56.40
70986;DHT22;58645;43.068;25.610;2023-04-06T15:13:12;11.40;56.90
70986;DHT22;58645;43.068;25.610;2023-04-06T15:15:38;11.40;56.80
70986;DHT22;58645;43.068;25.610;2023-04-06T15:18:04;11.40;56.90
70986;DHT22;58645;43.068;25.610;2023-04-06T15:20:30;11.30;55.70
70986;DHT22;58645;43.068;25.610;2023-04-06T15:22:56;11.20;56.30
70986;DHT22;58645;43.068;25.610;2023-04-06T15:25:22;11.00;56.70
70986;DHT22;58645;43.068;25.610;2023-04-06T15:27:48;10.90;56.60
70986;DHT22;58645;43.068;25.610;2023-04-06T15:30:14;10.90;57.50
70986;DHT22;58645;43.068;25.610;2023-04-06T15:32:40;10.80;56.80
70986;DHT22;58645;43.068;25.610;2023-04-06T15:35:09;10.70;57.40
70986;DHT22;58645;43.068;25.610;2023-04-06T15:37:36;10.60;57.00
70986;DHT22;58645;43.068;25.610;2023-04-06T15:40:03;10.50;56.70